Harbor Princess — WCX8036 — position and weather

sailwx.info

Track history (hours):
 
Tides and Currents Weather Stations Pressure Air Temp Water Temp Dewpoint Dewpoint Depression Visibility Wind Speed Wind Dir Waves Ship Positions

Harbor Princess

Owner: Golden Gate Scenic Steamship Corp, SAN FRANCISCO, CA. More information available from US FCC via Universal Licensing System and Coast Guard Vessel Documentation Center.

Last reported at 2017-Oct-19 01:07 UTC. Time now 2017-Oct-19 05:37 UTC.
Position N 37°49' W 122°25'.

Length 25 m; draft 2.8 m.

Type: Passenger vessel. MMSI: 366975750.

Date/timePositionNaut miles runAvg speedWind from/ knotsBaromVisibWave heightAir tempDewpointWater temp
2017-Oct-19 01:07N 37°49' W 122°25'0 0.0
2017-Oct-19 01:00N 37°49' W 122°25'2 4.5
2017-Oct-19 00:30N 37°49' W 122°28'2 4.6
2017-Oct-19 00:00N 37°49' W 122°25'1 2.6
2017-Oct-18 23:30N 37°50' W 122°25'2 3.0
2017-Oct-18 23:00N 37°49' W 122°27'2 3.1
2017-Oct-18 22:30N 37°49' W 122°25'2 4.8
2017-Oct-18 22:00N 37°49' W 122°28'2 4.8
2017-Oct-18 21:30N 37°49' W 122°25'1 1.3
2017-Oct-18 21:00N 37°49' W 122°24'3 5.6
2017-Oct-18 20:30N 37°49' W 122°28'2 5.0
2017-Oct-18 20:00N 37°49' W 122°25'0 0.0
2017-Oct-18 19:30N 37°49' W 122°25'1 2.2
2017-Oct-18 19:00N 37°50' W 122°25'2 3.2
2017-Oct-18 18:30N 37°49' W 122°27'2 3.1
2017-Oct-18 18:00N 37°49' W 122°25'0 0.0
2017-Oct-18 17:30N 37°49' W 122°25'0 0.0
2017-Oct-18 17:00N 37°49' W 122°25'0 0.0
2017-Oct-18 01:01N 37°49' W 122°25'0 0.0
2017-Oct-18 01:01N 37°49' W 122°25'2 4.5
2017-Oct-18 00:30N 37°49' W 122°28'2 4.5
2017-Oct-18 00:01N 37°49' W 122°25'1 2.0
2017-Oct-17 23:30N 37°50' W 122°25'2 3.7
2017-Oct-17 23:00N 37°49' W 122°27'2 3.9
2017-Oct-17 22:30N 37°49' W 122°25'2 4.6
2017-Oct-17 22:00N 37°49' W 122°28'2 4.6
2017-Oct-17 21:30N 37°49' W 122°25'0 1.0
2017-Oct-17 21:00N 37°49' W 122°24'3 6.7
2017-Oct-17 20:30N 37°49' W 122°29'3 6.1
2017-Oct-17 20:00N 37°49' W 122°25'0 0.0
2017-Oct-17 19:30N 37°49' W 122°25'1 1.6
2017-Oct-17 19:00N 37°49' W 122°25'2 4.2
2017-Oct-17 18:30N 37°49' W 122°27'2 4.0
2017-Oct-17 18:00N 37°49' W 122°25'2 4.6
2017-Oct-17 17:30N 37°50' W 122°27'2 4.5
2017-Oct-17 17:00N 37°49' W 122°25'0 0.0
2017-Oct-17 01:04N 37°49' W 122°25'0 0.0
2017-Oct-17 01:00N 37°49' W 122°25'2 4.4
2017-Oct-17 00:30N 37°50' W 122°27'2 4.4
2017-Oct-17 00:00N 37°49' W 122°25'1 1.5
2017-Oct-16 23:30N 37°49' W 122°25'2 4.6
2017-Oct-16 23:00N 37°49' W 122°28'2 4.3
2017-Oct-16 22:30N 37°49' W 122°25'2 4.3
2017-Oct-16 22:00N 37°50' W 122°27'2 4.3
2017-Oct-16 21:30N 37°49' W 122°25'0 0.6
2017-Oct-16 21:00N 37°49' W 122°25'3 6.6
2017-Oct-16 20:30N 37°49' W 122°29'3 6.3
2017-Oct-16 20:00N 37°49' W 122°25'0 0.0
2017-Oct-16 19:30N 37°49' W 122°25'1 1.7
2017-Oct-16 19:00N 37°49' W 122°25'2 4.2
2017-Oct-16 18:30N 37°49' W 122°27'2 4.1
2017-Oct-16 18:00N 37°49' W 122°25'2 4.6
2017-Oct-16 17:30N 37°50' W 122°28'2 4.6
2017-Oct-16 17:00N 37°49' W 122°25'0 0.0
2017-Oct-16 00:49N 37°49' W 122°25'1 3.2
2017-Oct-16 00:30N 37°48' W 122°24'2 3.7
2017-Oct-16 00:00N 37°50' W 122°25'2 3.3
2017-Oct-15 23:30N 37°49' W 122°27'2 3.4
2017-Oct-15 23:00N 37°49' W 122°25'2 4.9
2017-Oct-15 22:30N 37°49' W 122°28'2 4.9
2017-Oct-15 22:00N 37°49' W 122°25'1 2.1
2017-Oct-15 21:30N 37°50' W 122°25'2 4.0
2017-Oct-15 21:00N 37°49' W 122°27'2 4.0
2017-Oct-15 20:30N 37°49' W 122°25'0 0.0
2017-Oct-15 20:00N 37°49' W 122°25'1 2.5
2017-Oct-15 19:30N 37°50' W 122°25'2 3.1
2017-Oct-15 19:00N 37°49' W 122°27'2 0.1
2017-Oct-15 01:15N 37°49' W 122°25'0 0.0
2017-Oct-15 01:00N 37°49' W 122°25'3 6.1
2017-Oct-15 00:30N 37°49' W 122°29'3 6.0
2017-Oct-15 00:00N 37°49' W 122°25'1 2.0
2017-Oct-14 23:30N 37°50' W 122°25'2 3.1
2017-Oct-14 23:00N 37°49' W 122°27'2 3.1
2017-Oct-14 22:30N 37°49' W 122°25'3 5.3
2017-Oct-14 22:00N 37°50' W 122°28'3 5.3
2017-Oct-14 21:30N 37°49' W 122°25'1 1.6
2017-Oct-14 21:00N 37°49' W 122°25'2 4.7
2017-Oct-14 20:30N 37°49' W 122°28'2 4.4
2017-Oct-14 20:00N 37°49' W 122°25'0 0.0
2017-Oct-14 19:30N 37°49' W 122°25'1 1.9
2017-Oct-14 19:00N 37°50' W 122°25'2 4.1
2017-Oct-14 18:30N 37°49' W 122°27'2 4.0
2017-Oct-14 18:00N 37°49' W 122°25'2 4.9
2017-Oct-14 17:30N 37°49' W 122°28'2 4.9
2017-Oct-14 17:00N 37°49' W 122°25'0 0.0
2017-Oct-14 16:30N 37°49' W 122°25'0 0.0
2017-Oct-14 01:09N 37°49' W 122°25'0 0.0
2017-Oct-14 01:00N 37°49' W 122°25'2 4.6
2017-Oct-14 00:30N 37°50' W 122°27'2 4.6
2017-Oct-14 00:00N 37°49' W 122°25'1 1.4
2017-Oct-13 23:30N 37°49' W 122°24'3 5.3
2017-Oct-13 23:00N 37°49' W 122°28'2 4.5
2017-Oct-13 22:30N 37°49' W 122°25'2 5.0
2017-Oct-13 22:00N 37°49' W 122°28'2 5.0
2017-Oct-13 21:30N 37°49' W 122°25'1 1.3
2017-Oct-13 21:00N 37°49' W 122°24'3 5.6
2017-Oct-13 20:30N 37°49' W 122°28'2 4.9
2017-Oct-13 20:00N 37°49' W 122°25'0 0.0
2017-Oct-13 19:30N 37°49' W 122°25'1 2.1
2017-Oct-13 19:00N 37°50' W 122°25'2 3.6
2017-Oct-13 18:30N 37°49' W 122°27'2 3.7
2017-Oct-13 18:00N 37°49' W 122°25'2 4.7
2017-Oct-13 17:30N 37°49' W 122°28'2 4.7
2017-Oct-13 17:00N 37°49' W 122°25'0 0.0
2017-Oct-13 01:10N 37°49' W 122°25'0 0.0
2017-Oct-13 01:01N 37°49' W 122°25'2 4.5
2017-Oct-13 00:31N 37°50' W 122°27'2 4.5
2017-Oct-13 00:00N 37°49' W 122°25'1 1.9
2017-Oct-12 23:30N 37°49' W 122°25'2 3.4
2017-Oct-12 23:00N 37°49' W 122°27'2 3.4
2017-Oct-12 22:31N 37°49' W 122°25'3 5.4
2017-Oct-12 22:01N 37°49' W 122°28'3 5.4
2017-Oct-12 21:30N 37°49' W 122°25'1 1.3
2017-Oct-12 21:01N 37°49' W 122°24'3 5.8
2017-Oct-12 20:30N 37°49' W 122°28'2 4.9
2017-Oct-12 20:01N 37°49' W 122°25'0 0.0
2017-Oct-12 19:30N 37°49' W 122°25'1 1.7
2017-Oct-12 19:01N 37°49' W 122°25'2 3.8
2017-Oct-12 18:31N 37°49' W 122°27'2 3.5
2017-Oct-12 18:00N 37°49' W 122°25'3 5.3
2017-Oct-12 17:31N 37°49' W 122°28'3 5.2
2017-Oct-12 17:00N 37°49' W 122°25'0 0.0
2017-Oct-12 01:09N 37°49' W 122°25'0 0.0
2017-Oct-12 01:01N 37°49' W 122°25'2 4.7
2017-Oct-12 00:31N 37°49' W 122°28'2 4.7
2017-Oct-12 00:01N 37°49' W 122°25'1 2.3
2017-Oct-11 23:30N 37°50' W 122°25'1 2.9
2017-Oct-11 23:01N 37°49' W 122°27'1 2.9
2017-Oct-11 22:30N 37°49' W 122°25'2 4.4
2017-Oct-11 22:01N 37°50' W 122°27'2 4.4
2017-Oct-11 21:31N 37°49' W 122°25'1 1.1
2017-Oct-11 21:00N 37°49' W 122°24'3 6.2
2017-Oct-11 20:31N 37°49' W 122°28'3 5.3
2017-Oct-11 20:01N 37°49' W 122°25'0 0.0
2017-Oct-11 19:31N 37°49' W 122°25'1 1.7
2017-Oct-11 19:01N 37°49' W 122°25'2 4.2
2017-Oct-11 18:31N 37°49' W 122°27'2 3.8
2017-Oct-11 18:01N 37°49' W 122°25'2 4.6
2017-Oct-11 17:31N 37°49' W 122°28'2 4.6
2017-Oct-11 17:01N 37°49' W 122°25'1 0.1
2017-Oct-11 00:00N 37°50' W 122°25'2 3.3
2017-Oct-10 23:30N 37°49' W 122°27'2 3.5
2017-Oct-10 23:00N 37°49' W 122°25'2 4.5
2017-Oct-10 22:31N 37°50' W 122°27'2 4.5
2017-Oct-10 22:00N 37°49' W 122°25'0 0.9
2017-Oct-10 21:31N 37°49' W 122°24'3 5.5
2017-Oct-10 21:01N 37°49' W 122°28'2 4.7
2017-Oct-10 20:30N 37°49' W 122°25'0 0.0
2017-Oct-10 20:01N 37°49' W 122°25'1 2.4
2017-Oct-10 19:30N 37°50' W 122°25'1 2.7
2017-Oct-10 19:00N 37°49' W 122°27'1 2.7
2017-Oct-10 18:31N 37°49' W 122°25'2 4.5
2017-Oct-10 18:00N 37°49' W 122°28'2 4.5
2017-Oct-10 17:30N 37°49' W 122°25'0 0.0
2017-Oct-10 17:00N 37°49' W 122°25'0 0.0
2017-Oct-10 16:31N 37°49' W 122°25'0 0.0
2017-Oct-10 16:00N 37°49' W 122°25'0 0.0
2017-Oct-10 15:31N 37°49' W 122°25'0 0.0
2017-Oct-10 15:01N 37°49' W 122°25'  
Track history (hours):
 
Tides and Currents Weather Stations Pressure Air Temp Water Temp Dewpoint Dewpoint Depression Visibility Wind Speed Wind Dir Waves Ship Positions

Harbor Princess

Owner: Golden Gate Scenic Steamship Corp, SAN FRANCISCO, CA. More information available from US FCC via Universal Licensing System and Coast Guard Vessel Documentation Center.

Last reported at 2017-Oct-19 01:07 UTC. Time now 2017-Oct-19 05:37 UTC.
Position N 37°49' W 122°25'.

Length 25 m; draft 2.8 m.

Type: Passenger vessel. MMSI: 366975750.

Date/timePositionNaut miles runAvg speedWind from/ knotsBaromVisibWave heightAir tempDewpointWater temp
2017-Oct-19 01:07N 37°49' W 122°25'0 0.0
2017-Oct-19 01:00N 37°49' W 122°25'2 4.5
2017-Oct-19 00:30N 37°49' W 122°28'2 4.6
2017-Oct-19 00:00N 37°49' W 122°25'1 2.6
2017-Oct-18 23:30N 37°50' W 122°25'2 3.0
2017-Oct-18 23:00N 37°49' W 122°27'2 3.1
2017-Oct-18 22:30N 37°49' W 122°25'2 4.8
2017-Oct-18 22:00N 37°49' W 122°28'2 4.8
2017-Oct-18 21:30N 37°49' W 122°25'1 1.3
2017-Oct-18 21:00N 37°49' W 122°24'3 5.6
2017-Oct-18 20:30N 37°49' W 122°28'2 5.0
2017-Oct-18 20:00N 37°49' W 122°25'0 0.0
2017-Oct-18 19:30N 37°49' W 122°25'1 2.2
2017-Oct-18 19:00N 37°50' W 122°25'2 3.2
2017-Oct-18 18:30N 37°49' W 122°27'2 3.1
2017-Oct-18 18:00N 37°49' W 122°25'0 0.0
2017-Oct-18 17:30N 37°49' W 122°25'0 0.0
2017-Oct-18 17:00N 37°49' W 122°25'0 0.0
2017-Oct-18 01:01N 37°49' W 122°25'0 0.0
2017-Oct-18 01:01N 37°49' W 122°25'2 4.5
2017-Oct-18 00:30N 37°49' W 122°28'2 4.5
2017-Oct-18 00:01N 37°49' W 122°25'1 2.0
2017-Oct-17 23:30N 37°50' W 122°25'2 3.7
2017-Oct-17 23:00N 37°49' W 122°27'2 3.9
2017-Oct-17 22:30N 37°49' W 122°25'2 4.6
2017-Oct-17 22:00N 37°49' W 122°28'2 4.6
2017-Oct-17 21:30N 37°49' W 122°25'0 1.0
2017-Oct-17 21:00N 37°49' W 122°24'3 6.7
2017-Oct-17 20:30N 37°49' W 122°29'3 6.1
2017-Oct-17 20:00N 37°49' W 122°25'0 0.0
2017-Oct-17 19:30N 37°49' W 122°25'1 1.6
2017-Oct-17 19:00N 37°49' W 122°25'2 4.2
2017-Oct-17 18:30N 37°49' W 122°27'2 4.0
2017-Oct-17 18:00N 37°49' W 122°25'2 4.6
2017-Oct-17 17:30N 37°50' W 122°27'2 4.5
2017-Oct-17 17:00N 37°49' W 122°25'0 0.0
2017-Oct-17 01:04N 37°49' W 122°25'0 0.0
2017-Oct-17 01:00N 37°49' W 122°25'2 4.4
2017-Oct-17 00:30N 37°50' W 122°27'2 4.4
2017-Oct-17 00:00N 37°49' W 122°25'1 1.5
2017-Oct-16 23:30N 37°49' W 122°25'2 4.6
2017-Oct-16 23:00N 37°49' W 122°28'2 4.3
2017-Oct-16 22:30N 37°49' W 122°25'2 4.3
2017-Oct-16 22:00N 37°50' W 122°27'2 4.3
2017-Oct-16 21:30N 37°49' W 122°25'0 0.6
2017-Oct-16 21:00N 37°49' W 122°25'3 6.6
2017-Oct-16 20:30N 37°49' W 122°29'3 6.3
2017-Oct-16 20:00N 37°49' W 122°25'0 0.0
2017-Oct-16 19:30N 37°49' W 122°25'1 1.7
2017-Oct-16 19:00N 37°49' W 122°25'2 4.2
2017-Oct-16 18:30N 37°49' W 122°27'2 4.1
2017-Oct-16 18:00N 37°49' W 122°25'2 4.6
2017-Oct-16 17:30N 37°50' W 122°28'2 4.6
2017-Oct-16 17:00N 37°49' W 122°25'0 0.0
2017-Oct-16 00:49N 37°49' W 122°25'1 3.2
2017-Oct-16 00:30N 37°48' W 122°24'2 3.7
2017-Oct-16 00:00N 37°50' W 122°25'2 3.3
2017-Oct-15 23:30N 37°49' W 122°27'2 3.4
2017-Oct-15 23:00N 37°49' W 122°25'2 4.9
2017-Oct-15 22:30N 37°49' W 122°28'2 4.9
2017-Oct-15 22:00N 37°49' W 122°25'1 2.1
2017-Oct-15 21:30N 37°50' W 122°25'2 4.0
2017-Oct-15 21:00N 37°49' W 122°27'2 4.0
2017-Oct-15 20:30N 37°49' W 122°25'0 0.0
2017-Oct-15 20:00N 37°49' W 122°25'1 2.5
2017-Oct-15 19:30N 37°50' W 122°25'2 3.1
2017-Oct-15 19:00N 37°49' W 122°27'2 0.1
2017-Oct-15 01:15N 37°49' W 122°25'0 0.0
2017-Oct-15 01:00N 37°49' W 122°25'3 6.1
2017-Oct-15 00:30N 37°49' W 122°29'3 6.0
2017-Oct-15 00:00N 37°49' W 122°25'1 2.0
2017-Oct-14 23:30N 37°50' W 122°25'2 3.1
2017-Oct-14 23:00N 37°49' W 122°27'2 3.1
2017-Oct-14 22:30N 37°49' W 122°25'3 5.3
2017-Oct-14 22:00N 37°50' W 122°28'3 5.3
2017-Oct-14 21:30N 37°49' W 122°25'1 1.6
2017-Oct-14 21:00N 37°49' W 122°25'2 4.7
2017-Oct-14 20:30N 37°49' W 122°28'2 4.4
2017-Oct-14 20:00N 37°49' W 122°25'0 0.0
2017-Oct-14 19:30N 37°49' W 122°25'1 1.9
2017-Oct-14 19:00N 37°50' W 122°25'2 4.1
2017-Oct-14 18:30N 37°49' W 122°27'2 4.0
2017-Oct-14 18:00N 37°49' W 122°25'2 4.9
2017-Oct-14 17:30N 37°49' W 122°28'2 4.9
2017-Oct-14 17:00N 37°49' W 122°25'0 0.0
2017-Oct-14 16:30N 37°49' W 122°25'0 0.0
2017-Oct-14 01:09N 37°49' W 122°25'0 0.0
2017-Oct-14 01:00N 37°49' W 122°25'2 4.6
2017-Oct-14 00:30N 37°50' W 122°27'2 4.6
2017-Oct-14 00:00N 37°49' W 122°25'1 1.4
2017-Oct-13 23:30N 37°49' W 122°24'3 5.3
2017-Oct-13 23:00N 37°49' W 122°28'2 4.5
2017-Oct-13 22:30N 37°49' W 122°25'2 5.0
2017-Oct-13 22:00N 37°49' W 122°28'2 5.0
2017-Oct-13 21:30N 37°49' W 122°25'1 1.3
2017-Oct-13 21:00N 37°49' W 122°24'3 5.6
2017-Oct-13 20:30N 37°49' W 122°28'2 4.9
2017-Oct-13 20:00N 37°49' W 122°25'0 0.0
2017-Oct-13 19:30N 37°49' W 122°25'1 2.1
2017-Oct-13 19:00N 37°50' W 122°25'2 3.6
2017-Oct-13 18:30N 37°49' W 122°27'2 3.7
2017-Oct-13 18:00N 37°49' W 122°25'2 4.7
2017-Oct-13 17:30N 37°49' W 122°28'2 4.7
2017-Oct-13 17:00N 37°49' W 122°25'0 0.0
2017-Oct-13 01:10N 37°49' W 122°25'0 0.0
2017-Oct-13 01:01N 37°49' W 122°25'2 4.5
2017-Oct-13 00:31N 37°50' W 122°27'2 4.5
2017-Oct-13 00:00N 37°49' W 122°25'1 1.9
2017-Oct-12 23:30N 37°49' W 122°25'2 3.4
2017-Oct-12 23:00N 37°49' W 122°27'2 3.4
2017-Oct-12 22:31N 37°49' W 122°25'3 5.4
2017-Oct-12 22:01N 37°49' W 122°28'3 5.4
2017-Oct-12 21:30N 37°49' W 122°25'1 1.3
2017-Oct-12 21:01N 37°49' W 122°24'3 5.8
2017-Oct-12 20:30N 37°49' W 122°28'2 4.9
2017-Oct-12 20:01N 37°49' W 122°25'0 0.0
2017-Oct-12 19:30N 37°49' W 122°25'1 1.7
2017-Oct-12 19:01N 37°49' W 122°25'2 3.8
2017-Oct-12 18:31N 37°49' W 122°27'2 3.5
2017-Oct-12 18:00N 37°49' W 122°25'3 5.3
2017-Oct-12 17:31N 37°49' W 122°28'3 5.2
2017-Oct-12 17:00N 37°49' W 122°25'0 0.0
2017-Oct-12 01:09N 37°49' W 122°25'0 0.0
2017-Oct-12 01:01N 37°49' W 122°25'2 4.7
2017-Oct-12 00:31N 37°49' W 122°28'2 4.7
2017-Oct-12 00:01N 37°49' W 122°25'1 2.3
2017-Oct-11 23:30N 37°50' W 122°25'1 2.9
2017-Oct-11 23:01N 37°49' W 122°27'1 2.9
2017-Oct-11 22:30N 37°49' W 122°25'2 4.4
2017-Oct-11 22:01N 37°50' W 122°27'2 4.4
2017-Oct-11 21:31N 37°49' W 122°25'1 1.1
2017-Oct-11 21:00N 37°49' W 122°24'3 6.2
2017-Oct-11 20:31N 37°49' W 122°28'3 5.3
2017-Oct-11 20:01N 37°49' W 122°25'0 0.0
2017-Oct-11 19:31N 37°49' W 122°25'1 1.7
2017-Oct-11 19:01N 37°49' W 122°25'2 4.2
2017-Oct-11 18:31N 37°49' W 122°27'2 3.8
2017-Oct-11 18:01N 37°49' W 122°25'2 4.6
2017-Oct-11 17:31N 37°49' W 122°28'2 4.6
2017-Oct-11 17:01N 37°49' W 122°25'1 0.1
2017-Oct-11 00:00N 37°50' W 122°25'2 3.3
2017-Oct-10 23:30N 37°49' W 122°27'2 3.5
2017-Oct-10 23:00N 37°49' W 122°25'2 4.5
2017-Oct-10 22:31N 37°50' W 122°27'2 4.5
2017-Oct-10 22:00N 37°49' W 122°25'0 0.9
2017-Oct-10 21:31N 37°49' W 122°24'3 5.5
2017-Oct-10 21:01N 37°49' W 122°28'2 4.7
2017-Oct-10 20:30N 37°49' W 122°25'0 0.0
2017-Oct-10 20:01N 37°49' W 122°25'1 2.4
2017-Oct-10 19:30N 37°50' W 122°25'1 2.7
2017-Oct-10 19:00N 37°49' W 122°27'1 2.7
2017-Oct-10 18:31N 37°49' W 122°25'2 4.5
2017-Oct-10 18:00N 37°49' W 122°28'2 4.5
2017-Oct-10 17:30N 37°49' W 122°25'0 0.0
2017-Oct-10 17:00N 37°49' W 122°25'0 0.0
2017-Oct-10 16:31N 37°49' W 122°25'0 0.0
2017-Oct-10 16:00N 37°49' W 122°25'0 0.0
2017-Oct-10 15:31N 37°49' W 122°25'0 0.0
2017-Oct-10 15:01N 37°49' W 122°25'  

Dump ship's entire track history